sensor_id;sensor_type;location;lat;lon;timestamp;pressure;altitude;pressure_sealevel;temperature;humidity
27705;BME280;15109;50.992;6.918;2022-11-23T00:04:36;99190.19;;;9.34;100.00
27705;BME280;15109;50.992;6.918;2022-11-23T00:07:57;99188.28;;;9.34;100.00
27705;BME280;15109;50.992;6.918;2022-11-23T00:11:19;99186.00;;;9.31;100.00
27705;BME280;15109;50.992;6.918;2022-11-23T00:14:41;99189.34;;;9.33;100.00
27705;BME280;15109;50.992;6.918;2022-11-23T00:18:02;99187.06;;;9.30;100.00
27705;BME280;15109;50.992;6.918;2022-11-23T00:21:25;99188.94;;;9.30;100.00
27705;BME280;15109;50.992;6.918;2022-11-23T00:24:46;99194.78;;;9.33;100.00
27705;BME280;15109;50.992;6.918;2022-11-23T00:28:07;99203.63;;;9.35;100.00
27705;BME280;15109;50.992;6.918;2022-11-23T00:31:28;99200.44;;;9.38;100.00
27705;BME280;15109;50.992;6.918;2022-11-23T00:34:49;99202.13;;;9.39;100.00
27705;BME280;15109;50.992;6.918;2022-11-23T00:38:12;99207.59;;;9.39;100.00
27705;BME280;15109;50.992;6.918;2022-11-23T00:41:33;99204.22;;;9.37;100.00
27705;BME280;15109;50.992;6.918;2022-11-23T00:44:54;99210.06;;;9.41;100.00
27705;BME280;15109;50.992;6.918;2022-11-23T00:48:15;99206.94;;;9.44;100.00
27705;BME280;15109;50.992;6.918;2022-11-23T00:51:36;99205.66;;;9.46;100.00
27705;BME280;15109;50.992;6.918;2022-11-23T00:54:58;99211.09;;;9.46;100.00
27705;BME280;15109;50.992;6.918;2022-11-23T00:58:19;99212.97;;;9.52;100.00
27705;BME280;15109;50.992;6.918;2022-11-23T01:01:40;99212.34;;;9.50;100.00
27705;BME280;15109;50.992;6.918;2022-11-23T01:05:02;99218.03;;;9.49;100.00
27705;BME280;15109;50.992;6.918;2022-11-23T01:08:23;99219.28;;;9.46;100.00
27705;BME280;15109;50.992;6.918;2022-11-23T01:11:45;99231.88;;;9.47;100.00
27705;BME280;15109;50.992;6.918;2022-11-23T01:15:07;99229.59;;;9.44;100.00
27705;BME280;15109;50.992;6.918;2022-11-23T01:18:28;99231.69;;;9.42;100.00
27705;BME280;15109;50.992;6.918;2022-11-23T01:21:49;99228.75;;;9.44;100.00
27705;BME280;15109;50.992;6.918;2022-11-23T01:25:10;99224.31;;;9.49;100.00
27705;BME280;15109;50.992;6.918;2022-11-23T01:28:33;99235.47;;;9.48;100.00
27705;BME280;15109;50.992;6.918;2022-11-23T01:31:54;99223.31;;;9.44;100.00
27705;BME280;15109;50.992;6.918;2022-11-23T01:35:15;99239.88;;;9.42;100.00
27705;BME280;15109;50.992;6.918;2022-11-23T01:38:36;99227.69;;;9.45;100.00
27705;BME280;15109;50.992;6.918;2022-11-23T01:41:57;99240.50;;;9.44;100.00
27705;BME280;15109;50.992;6.918;2022-11-23T01:45:40;99239.88;;;9.42;100.00
27705;BME280;15109;50.992;6.918;2022-11-23T01:49:04;99244.03;;;9.45;100.00
27705;BME280;15109;50.992;6.918;2022-11-23T01:52:26;99244.28;;;9.43;100.00
27705;BME280;15109;50.992;6.918;2022-11-23T01:55:48;99246.13;;;9.49;100.00
27705;BME280;15109;50.992;6.918;2022-11-23T01:59:12;99247.38;;;9.53;100.00
27705;BME280;15109;50.992;6.918;2022-11-23T02:02:34;99254.50;;;9.54;100.00
27705;BME280;15109;50.992;6.918;2022-11-23T02:06:00;99260.41;;;9.51;100.00
27705;BME280;15109;50.992;6.918;2022-11-23T02:09:23;99262.09;;;9.52;100.00
27705;BME280;15109;50.992;6.918;2022-11-23T02:12:45;99253.50;;;9.49;100.00
27705;BME280;15109;50.992;6.918;2022-11-23T02:16:06;99264.19;;;9.50;100.00
27705;BME280;15109;50.992;6.918;2022-11-23T02:27:06;99269.44;;;9.52;100.00
27705;BME280;15109;50.992;6.918;2022-11-23T02:30:29;99262.31;;;9.51;100.00
27705;BME280;15109;50.992;6.918;2022-11-23T02:33:51;99270.69;;;9.49;100.00
27705;BME280;15109;50.992;6.918;2022-11-23T02:37:12;99274.66;;;9.53;100.00
27705;BME280;15109;50.992;6.918;2022-11-23T02:40:35;99267.34;;;9.47;100.00
27705;BME280;15109;50.992;6.918;2022-11-23T02:43:56;99274.91;;;9.45;100.00
27705;BME280;15109;50.992;6.918;2022-11-23T02:47:20;99270.91;;;9.48;100.00
27705;BME280;15109;50.992;6.918;2022-11-23T02:50:41;99271.75;;;9.48;100.00
27705;BME280;15109;50.992;6.918;2022-11-23T02:54:02;99269.25;;;9.47;100.00
27705;BME280;15109;50.992;6.918;2022-11-23T02:57:23;99271.56;;;9.43;100.00
27705;BME280;15109;50.992;6.918;2022-11-23T03:00:44;99267.78;;;9.44;100.00
27705;BME280;15109;50.992;6.918;2022-11-23T03:04:06;99262.53;;;9.43;100.00
27705;BME280;15109;50.992;6.918;2022-11-23T03:07:27;99271.56;;;9.43;100.00
27705;BME280;15109;50.992;6.918;2022-11-23T03:10:49;99274.06;;;9.45;100.00
27705;BME280;15109;50.992;6.918;2022-11-23T03:14:10;99265.47;;;9.48;100.00
27705;BME280;15109;50.992;6.918;2022-11-23T03:17:40;99270.53;;;9.44;100.00
27705;BME280;15109;50.992;6.918;2022-11-23T03:21:05;99270.09;;;9.47;100.00
27705;BME280;15109;50.992;6.918;2022-11-23T03:24:31;99273.00;;;9.46;100.00
27705;BME280;15109;50.992;6.918;2022-11-23T03:27:55;99270.09;;;9.47;100.00
27705;BME280;15109;50.992;6.918;2022-11-23T03:31:16;99272.81;;;9.47;100.00
27705;BME280;15109;50.992;6.918;2022-11-23T03:34:37;99277.00;;;9.50;100.00
27705;BME280;15109;50.992;6.918;2022-11-23T03:37:59;99279.72;;;9.50;100.00
27705;BME280;15109;50.992;6.918;2022-11-23T03:41:20;99275.94;;;9.51;100.00
27705;BME280;15109;50.992;6.918;2022-11-23T03:44:46;99288.31;;;9.53;100.00
27705;BME280;15109;50.992;6.918;2022-11-23T03:48:08;99279.91;;;9.55;100.00
27705;BME280;15109;50.992;6.918;2022-11-23T03:51:30;99277.38;;;9.53;100.00
27705;BME280;15109;50.992;6.918;2022-11-23T03:54:51;99284.13;;;9.51;100.00
27705;BME280;15109;50.992;6.918;2022-11-23T03:58:12;99276.59;;;9.46;100.00
27705;BME280;15109;50.992;6.918;2022-11-23T04:01:35;99274.50;;;9.48;100.00
27705;BME280;15109;50.992;6.918;2022-11-23T04:05:00;99268.59;;;9.45;100.00
27705;BME280;15109;50.992;6.918;2022-11-23T04:08:40;99278.06;;;9.42;100.00
27705;BME280;15109;50.992;6.918;2022-11-23T04:12:08;99275.97;;;9.44;100.00
27705;BME280;15109;50.992;6.918;2022-11-23T04:15:31;99280.59;;;9.44;100.00
27705;BME280;15109;50.992;6.918;2022-11-23T04:18:53;99272.81;;;9.41;100.00
27705;BME280;15109;50.992;6.918;2022-11-23T04:22:14;99269.03;;;9.42;100.00
27705;BME280;15109;50.992;6.918;2022-11-23T04:25:36;99269.69;;;9.44;100.00
27705;BME280;15109;50.992;6.918;2022-11-23T04:28:58;99274.72;;;9.40;100.00
27705;BME280;15109;50.992;6.918;2022-11-23T04:32:19;99271.56;;;9.43;100.00
27705;BME280;15109;50.992;6.918;2022-11-23T04:35:41;99279.94;;;9.48;100.00
27705;BME280;15109;50.992;6.918;2022-11-23T04:39:03;99265.66;;;9.46;100.00
27705;BME280;15109;50.992;6.918;2022-11-23T04:42:32;99278.66;;;9.51;100.00
27705;BME280;15109;50.992;6.918;2022-11-23T04:45:55;99276.16;;;9.49;100.00
27705;BME280;15109;50.992;6.918;2022-11-23T04:49:22;99286.41;;;9.54;100.00
27705;BME280;15109;50.992;6.918;2022-11-23T04:52:44;99286.00;;;9.50;100.00
27705;BME280;15109;50.992;6.918;2022-11-23T04:56:10;99282.84;;;9.53;100.00
27705;BME280;15109;50.992;6.918;2022-11-23T04:59:34;99298.81;;;9.56;100.00
27705;BME280;15109;50.992;6.918;2022-11-23T05:03:00;99298.81;;;9.50;100.00
27705;BME280;15109;50.992;6.918;2022-11-23T05:06:24;99293.59;;;9.48;100.00
27705;BME280;15109;50.992;6.918;2022-11-23T05:09:45;99288.53;;;9.45;100.00
27705;BME280;15109;50.992;6.918;2022-11-23T05:13:09;99297.38;;;9.41;100.00
27705;BME280;15109;50.992;6.918;2022-11-23T05:16:30;99293.00;;;9.40;100.00
27705;BME280;15109;50.992;6.918;2022-11-23T05:19:53;99296.75;;;9.39;100.00
27705;BME280;15109;50.992;6.918;2022-11-23T05:23:16;99306.63;;;9.40;100.00
27705;BME280;15109;50.992;6.918;2022-11-23T05:26:39;99304.94;;;9.39;100.00
27705;BME280;15109;50.992;6.918;2022-11-23T05:30:01;99301.81;;;9.35;100.00
27705;BME280;15109;50.992;6.918;2022-11-23T05:33:22;99300.72;;;9.36;100.00
27705;BME280;15109;50.992;6.918;2022-11-23T05:36:43;99308.75;;;9.31;100.00
27705;BME280;15109;50.992;6.918;2022-11-23T05:40:05;99315.69;;;9.27;100.00
27705;BME280;15109;50.992;6.918;2022-11-23T05:43:26;99309.78;;;9.24;100.00
27705;BME280;15109;50.992;6.918;2022-11-23T05:46:48;99307.06;;;9.24;100.00
27705;BME280;15109;50.992;6.918;2022-11-23T05:50:09;99306.00;;;9.25;100.00
27705;BME280;15109;50.992;6.918;2022-11-23T05:53:35;99313.38;;;9.18;100.00
27705;BME280;15109;50.992;6.918;2022-11-23T05:57:06;99310.25;;;9.07;100.00
27705;BME280;15109;50.992;6.918;2022-11-23T06:00:38;99317.81;;;9.05;100.00
27705;BME280;15109;50.992;6.918;2022-11-23T06:04:01;99308.78;;;9.05;100.00
27705;BME280;15109;50.992;6.918;2022-11-23T06:07:27;99306.47;;;9.08;100.00
27705;BME280;15109;50.992;6.918;2022-11-23T06:11:00;99309.81;;;9.10;100.00
27705;BME280;15109;50.992;6.918;2022-11-23T06:14:21;99307.91;;;9.11;100.00
27705;BME280;15109;50.992;6.918;2022-11-23T06:17:45;99310.25;;;9.14;100.00
27705;BME280;15109;50.992;6.918;2022-11-23T06:21:09;99312.75;;;9.16;100.00
27705;BME280;15109;50.992;6.918;2022-11-23T06:24:32;99309.41;;;9.14;100.00
27705;BME280;15109;50.992;6.918;2022-11-23T06:28:13;99309.59;;;9.19;100.00
27705;BME280;15109;50.992;6.918;2022-11-23T06:31:37;99305.41;;;9.16;100.00
27705;BME280;15109;50.992;6.918;2022-11-23T06:34:59;99310.22;;;9.21;100.00
27705;BME280;15109;50.992;6.918;2022-11-23T06:38:20;99304.78;;;9.14;100.00
27705;BME280;15109;50.992;6.918;2022-11-23T06:41:46;99304.34;;;9.17;100.00
27705;BME280;15109;50.992;6.918;2022-11-23T06:45:08;99302.25;;;9.19;100.00
27705;BME280;15109;50.992;6.918;2022-11-23T06:48:31;99306.44;;;9.22;100.00
27705;BME280;15109;50.992;6.918;2022-11-23T06:51:54;99306.44;;;9.22;100.00
27705;BME280;15109;50.992;6.918;2022-11-23T06:55:15;99317.16;;;9.17;100.00
27705;BME280;15109;50.992;6.918;2022-11-23T06:58:36;99306.69;;;9.14;100.00
27705;BME280;15109;50.992;6.918;2022-11-23T07:02:02;99309.19;;;9.08;100.00
27705;BME280;15109;50.992;6.918;2022-11-23T07:05:27;99322.41;;;9.05;100.00
27705;BME280;15109;50.992;6.918;2022-11-23T07:08:49;99320.31;;;9.00;100.00
27705;BME280;15109;50.992;6.918;2022-11-23T07:12:42;99331.84;;;8.89;100.00
27705;BME280;15109;50.992;6.918;2022-11-23T07:16:03;99327.88;;;8.79;100.00
27705;BME280;15109;50.992;6.918;2022-11-23T07:19:24;99330.19;;;8.75;100.00
27705;BME280;15109;50.992;6.918;2022-11-23T07:22:58;99328.69;;;8.73;100.00
27705;BME280;15109;50.992;6.918;2022-11-23T07:26:20;99338.13;;;8.70;100.00
27705;BME280;15109;50.992;6.918;2022-11-23T07:29:41;99343.78;;;8.69;100.00
27705;BME280;15109;50.992;6.918;2022-11-23T07:33:05;99360.75;;;8.64;100.00
27705;BME280;15109;50.992;6.918;2022-11-23T07:36:26;99366.44;;;8.62;100.00
27705;BME280;15109;50.992;6.918;2022-11-23T07:39:48;99376.50;;;8.62;100.00
27705;BME280;15109;50.992;6.918;2022-11-23T07:43:09;99377.72;;;8.59;100.00
27705;BME280;15109;50.992;6.918;2022-11-23T07:46:30;99379.00;;;8.57;100.00
27705;BME280;15109;50.992;6.918;2022-11-23T07:49:51;99374.38;;;8.57;100.00
27705;BME280;15109;50.992;6.918;2022-11-23T07:53:12;99368.50;;;8.60;100.00
27705;BME280;15109;50.992;6.918;2022-11-23T07:56:33;99377.34;;;8.62;100.00
27705;BME280;15109;50.992;6.918;2022-11-23T07:59:54;99377.34;;;8.62;100.00
27705;BME280;15109;50.992;6.918;2022-11-23T08:03:15;99375.84;;;8.60;100.00
27705;BME280;15109;50.992;6.918;2022-11-23T08:06:36;99380.06;;;8.62;100.00
27705;BME280;15109;50.992;6.918;2022-11-23T08:09:57;99384.00;;;8.60;100.00
27705;BME280;15109;50.992;6.918;2022-11-23T08:13:18;99387.59;;;8.60;100.00
27705;BME280;15109;50.992;6.918;2022-11-23T08:16:40;99388.22;;;8.62;100.00
27705;BME280;15109;50.992;6.918;2022-11-23T08:20:01;99389.06;;;8.70;100.00
27705;BME280;15109;50.992;6.918;2022-11-23T08:23:22;99385.31;;;8.71;100.00
27705;BME280;15109;50.992;6.918;2022-11-23T08:26:43;99382.16;;;8.74;100.00
27705;BME280;15109;50.992;6.918;2022-11-23T08:30:04;99382.59;;;8.71;100.00
27705;BME280;15109;50.992;6.918;2022-11-23T08:33:25;99389.72;;;8.78;100.00
27705;BME280;15109;50.992;6.918;2022-11-23T08:36:47;99385.75;;;8.87;100.00
27705;BME280;15109;50.992;6.918;2022-11-23T08:40:09;99384.91;;;8.87;100.00
27705;BME280;15109;50.992;6.918;2022-11-23T08:43:31;99403.34;;;8.85;100.00
27705;BME280;15109;50.992;6.918;2022-11-23T08:46:52;99400.44;;;8.93;100.00
27705;BME280;15109;50.992;6.918;2022-11-23T08:50:13;99401.28;;;9.00;100.00
27705;BME280;15109;50.992;6.918;2022-11-23T08:53:35;99397.28;;;9.02;100.00
27705;BME280;15109;50.992;6.918;2022-11-23T08:56:56;99391.41;;;9.05;100.00
27705;BME280;15109;50.992;6.918;2022-11-23T09:00:17;99395.00;;;9.06;100.00
27705;BME280;15109;50.992;6.918;2022-11-23T09:03:40;99387.00;;;9.11;100.00
27705;BME280;15109;50.992;6.918;2022-11-23T09:07:02;99399.38;;;9.14;100.00
27705;BME280;15109;50.992;6.918;2022-11-23T09:10:23;99398.97;;;9.17;100.00
27705;BME280;15109;50.992;6.918;2022-11-23T09:13:44;99406.72;;;9.13;100.00
27705;BME280;15109;50.992;6.918;2022-11-23T09:17:05;99405.25;;;9.17;100.00
27705;BME280;15109;50.992;6.918;2022-11-23T09:20:26;99421.63;;;9.17;100.00
27705;BME280;15109;50.992;6.918;2022-11-23T09:23:48;99413.22;;;9.25;100.00
27705;BME280;15109;50.992;6.918;2022-11-23T09:27:09;99412.19;;;9.26;100.00
27705;BME280;15109;50.992;6.918;2022-11-23T09:30:30;99403.78;;;9.28;100.00
27705;BME280;15109;50.992;6.918;2022-11-23T09:33:51;99407.13;;;9.30;100.00
27705;BME280;15109;50.992;6.918;2022-11-23T09:37:14;99413.41;;;9.37;100.00
27705;BME280;15109;50.992;6.918;2022-11-23T09:40:37;99414.25;;;9.50;100.00
27705;BME280;15109;50.992;6.918;2022-11-23T09:44:04;99406.25;;;9.69;100.00
27705;BME280;15109;50.992;6.918;2022-11-23T09:51:20;99411.69;;;9.82;100.00
27705;BME280;15109;50.992;6.918;2022-11-23T09:54:44;99407.66;;;9.91;100.00
27705;BME280;15109;50.992;6.918;2022-11-23T09:58:12;99419.59;;;10.03;100.00
27705;BME280;15109;50.992;6.918;2022-11-23T10:01:34;99414.75;;;10.12;100.00
27705;BME280;15109;50.992;6.918;2022-11-23T10:04:57;99414.53;;;10.20;100.00
27705;BME280;15109;50.992;6.918;2022-11-23T10:08:29;99402.94;;;10.31;100.00
27705;BME280;15109;50.992;6.918;2022-11-23T10:16:02;99398.88;;;10.40;100.00
27705;BME280;15109;50.992;6.918;2022-11-23T10:20:19;99395.72;;;10.43;100.00
27705;BME280;15109;50.992;6.918;2022-11-23T10:27:09;99395.91;;;10.48;100.00
27705;BME280;15109;50.992;6.918;2022-11-23T10:30:33;99387.88;;;10.53;100.00
27705;BME280;15109;50.992;6.918;2022-11-23T10:34:07;99386.22;;;10.52;100.00
27705;BME280;15109;50.992;6.918;2022-11-23T10:37:31;99381.16;;;10.56;100.00
27705;BME280;15109;50.992;6.918;2022-11-23T10:41:02;99371.00;;;10.63;100.00
27705;BME280;15109;50.992;6.918;2022-11-23T10:44:37;99368.72;;;10.60;100.00
27705;BME280;15109;50.992;6.918;2022-11-23T10:47:59;99360.31;;;10.61;100.00
27705;BME280;15109;50.992;6.918;2022-11-23T10:58:24;99326.00;;;10.65;100.00
27705;BME280;15109;50.992;6.918;2022-11-23T11:01:58;99327.81;;;10.46;100.00
27705;BME280;15109;50.992;6.918;2022-11-23T11:05:38;99315.06;;;10.34;100.00
27705;BME280;15109;50.992;6.918;2022-11-23T11:09:18;99301.66;;;10.26;100.00
27705;BME280;15109;50.992;6.918;2022-11-23T11:12:50;99299.59;;;10.21;100.00
27705;BME280;15109;50.992;6.918;2022-11-23T11:16:19;99299.41;;;10.16;100.00
27705;BME280;15109;50.992;6.918;2022-11-23T11:19:43;99299.59;;;10.21;100.00
27705;BME280;15109;50.992;6.918;2022-11-23T11:23:16;99297.63;;;10.35;100.00
27705;BME280;15109;50.992;6.918;2022-11-23T11:26:47;99289.34;;;10.48;100.00
27705;BME280;15109;50.992;6.918;2022-11-23T11:30:21;99303.97;;;10.60;100.00
27705;BME280;15109;50.992;6.918;2022-11-23T11:37:12;99307.94;;;10.89;100.00
27705;BME280;15109;50.992;6.918;2022-11-23T11:44:08;99310.22;;;10.92;100.00
27705;BME280;15109;50.992;6.918;2022-11-23T11:47:36;99295.69;;;10.91;100.00
27705;BME280;15109;50.992;6.918;2022-11-23T11:51:05;99303.09;;;10.91;100.00
27705;BME280;15109;50.992;6.918;2022-11-23T11:58:14;99298.25;;;11.11;100.00
27705;BME280;15109;50.992;6.918;2022-11-23T12:01:40;99300.91;;;11.18;100.00
27705;BME280;15109;50.992;6.918;2022-11-23T12:09:17;99302.09;;;11.28;100.00
27705;BME280;15109;50.992;6.918;2022-11-23T12:12:41;99294.78;;;11.22;100.00
27705;BME280;15109;50.992;6.918;2022-11-23T12:19:55;99291.44;;;11.20;100.00
27705;BME280;15109;50.992;6.918;2022-11-23T12:23:33;99280.72;;;11.19;100.00
27705;BME280;15109;50.992;6.918;2022-11-23T12:38:25;99285.03;;;11.08;100.00
27705;BME280;15109;50.992;6.918;2022-11-23T13:00:20;99229.94;;;11.23;100.00
27705;BME280;15109;50.992;6.918;2022-11-23T13:11:47;99211.47;;;10.82;100.00
27705;BME280;15109;50.992;6.918;2022-11-23T13:15:03;99213.66;;;10.73;100.00
27705;BME280;15109;50.992;6.918;2022-11-23T13:22:13;99212.63;;;10.68;100.00
27705;BME280;15109;50.992;6.918;2022-11-23T13:25:36;99216.50;;;10.60;100.00
27705;BME280;15109;50.992;6.918;2022-11-23T13:28:57;99196.97;;;10.57;100.00
27705;BME280;15109;50.992;6.918;2022-11-23T13:35:58;99198.81;;;10.38;100.00
27705;BME280;15109;50.992;6.918;2022-11-23T13:43:28;99203.06;;;10.34;100.00
27705;BME280;15109;50.992;6.918;2022-11-23T13:47:06;99194.47;;;10.30;100.00
27705;BME280;15109;50.992;6.918;2022-11-23T13:50:39;99188.44;;;10.22;100.00
27705;BME280;15109;50.992;6.918;2022-11-23T13:54:20;99186.59;;;10.16;100.00
27705;BME280;15109;50.992;6.918;2022-11-23T13:57:43;99181.16;;;10.09;100.00
27705;BME280;15109;50.992;6.918;2022-11-23T14:01:05;99179.69;;;10.07;100.00
27705;BME280;15109;50.992;6.918;2022-11-23T14:04:34;99176.94;;;10.07;100.00
27705;BME280;15109;50.992;6.918;2022-11-23T14:07:58;99192.06;;;10.09;100.00
27705;BME280;15109;50.992;6.918;2022-11-23T14:11:22;99181.81;;;10.05;100.00
27705;BME280;15109;50.992;6.918;2022-11-23T14:14:56;99188.31;;;10.03;100.00
27705;BME280;15109;50.992;6.918;2022-11-23T14:18:35;99183.69;;;10.04;100.00
27705;BME280;15109;50.992;6.918;2022-11-23T14:22:15;99178.00;;;10.06;100.00
27705;BME280;15109;50.992;6.918;2022-11-23T14:29:56;99182.03;;;10.03;100.00
27705;BME280;15109;50.992;6.918;2022-11-23T14:33:28;99184.97;;;10.01;100.00
27705;BME280;15109;50.992;6.918;2022-11-23T14:36:58;99183.31;;;10.00;100.00
27705;BME280;15109;50.992;6.918;2022-11-23T14:43:45;99187.28;;;10.05;100.00
27705;BME280;15109;50.992;6.918;2022-11-23T14:47:08;99195.22;;;10.06;100.00
27705;BME280;15109;50.992;6.918;2022-11-23T14:50:29;99200.63;;;10.19;100.00
27705;BME280;15109;50.992;6.918;2022-11-23T14:53:54;99200.81;;;10.24;100.00
27705;BME280;15109;50.992;6.918;2022-11-23T14:57:21;99210.69;;;10.25;100.00
27705;BME280;15109;50.992;6.918;2022-11-23T15:00:43;99215.69;;;10.28;100.00
27705;BME280;15109;50.992;6.918;2022-11-23T15:04:08;99226.63;;;10.28;100.00
27705;BME280;15109;50.992;6.918;2022-11-23T15:11:12;99235.38;;;10.37;100.00
27705;BME280;15109;50.992;6.918;2022-11-23T15:14:41;99254.50;;;10.37;100.00
27705;BME280;15109;50.992;6.918;2022-11-23T15:18:03;99254.84;;;10.22;100.00
27705;BME280;15109;50.992;6.918;2022-11-23T15:21:25;99261.59;;;10.13;100.00
27705;BME280;15109;50.992;6.918;2022-11-23T15:24:47;99261.84;;;10.05;100.00
27705;BME280;15109;50.992;6.918;2022-11-23T15:28:15;99270.50;;;9.95;100.00
27705;BME280;15109;50.992;6.918;2022-11-23T15:31:37;99280.41;;;9.90;100.00
27705;BME280;15109;50.992;6.918;2022-11-23T15:35:05;99294.09;;;9.83;100.00
27705;BME280;15109;50.992;6.918;2022-11-23T15:38:27;99312.34;;;9.83;100.00
27705;BME280;15109;50.992;6.918;2022-11-23T15:41:54;99314.25;;;9.76;100.00
27705;BME280;15109;50.992;6.918;2022-11-23T15:45:34;99326.06;;;9.70;100.00
27705;BME280;15109;50.992;6.918;2022-11-23T15:48:55;99343.91;;;9.66;100.00
27705;BME280;15109;50.992;6.918;2022-11-23T15:52:18;99343.91;;;9.59;100.00
27705;BME280;15109;50.992;6.918;2022-11-23T15:55:41;99357.16;;;9.55;100.00
27705;BME280;15109;50.992;6.918;2022-11-23T16:03:41;99373.75;;;9.47;100.00
27705;BME280;15109;50.992;6.918;2022-11-23T16:07:25;99382.38;;;9.38;100.00
27705;BME280;15109;50.992;6.918;2022-11-23T16:10:53;99387.00;;;9.31;100.00
27705;BME280;15109;50.992;6.918;2022-11-23T16:14:19;99379.22;;;9.28;100.00
27705;BME280;15109;50.992;6.918;2022-11-23T16:17:46;99380.09;;;9.22;100.00
27705;BME280;15109;50.992;6.918;2022-11-23T16:21:13;99396.22;;;9.17;100.00
27705;BME280;15109;50.992;6.918;2022-11-23T16:24:35;99390.78;;;9.17;100.00
27705;BME280;15109;50.992;6.918;2022-11-23T16:28:14;99396.44;;;9.22;100.00
27705;BME280;15109;50.992;6.918;2022-11-23T16:31:38;99398.53;;;9.13;100.00
27705;BME280;15109;50.992;6.918;2022-11-23T16:35:14;99421.59;;;9.10;100.00
27705;BME280;15109;50.992;6.918;2022-11-23T16:38:35;99418.88;;;9.10;100.00
27705;BME280;15109;50.992;6.918;2022-11-23T16:41:56;99424.56;;;9.09;100.00
27705;BME280;15109;50.992;6.918;2022-11-23T16:45:17;99426.25;;;9.10;100.00
27705;BME280;15109;50.992;6.918;2022-11-23T16:48:40;99441.97;;;9.08;100.00
27705;BME280;15109;50.992;6.918;2022-11-23T16:52:01;99443.00;;;9.07;100.00
27705;BME280;15109;50.992;6.918;2022-11-23T16:55:22;99440.69;;;9.04;100.00
27705;BME280;15109;50.992;6.918;2022-11-23T16:58:44;99447.00;;;9.04;100.00
27705;BME280;15109;50.992;6.918;2022-11-23T17:02:11;99448.44;;;9.07;100.00
27705;BME280;15109;50.992;6.918;2022-11-23T17:05:32;99450.16;;;9.01;100.00
27705;BME280;15109;50.992;6.918;2022-11-23T17:08:54;99448.03;;;8.97;100.00
27705;BME280;15109;50.992;6.918;2022-11-23T17:12:16;99450.97;;;8.95;100.00
27705;BME280;15109;50.992;6.918;2022-11-23T17:15:38;99450.13;;;8.88;100.00
27705;BME280;15109;50.992;6.918;2022-11-23T17:18:59;99442.75;;;8.89;100.00
27705;BME280;15109;50.992;6.918;2022-11-23T17:22:21;99456.81;;;8.86;100.00
27705;BME280;15109;50.992;6.918;2022-11-23T17:25:42;99463.75;;;8.88;100.00
27705;BME280;15109;50.992;6.918;2022-11-23T17:29:13;99472.09;;;8.80;100.00
27705;BME280;15109;50.992;6.918;2022-11-23T17:32:34;99469.59;;;8.79;100.00
27705;BME280;15109;50.992;6.918;2022-11-23T17:35:56;99479.41;;;8.73;100.00
27705;BME280;15109;50.992;6.918;2022-11-23T17:39:22;99495.34;;;8.76;100.00
27705;BME280;15109;50.992;6.918;2022-11-23T17:42:44;99500.59;;;8.71;100.00
27705;BME280;15109;50.992;6.918;2022-11-23T17:46:05;99501.41;;;8.72;100.00
27705;BME280;15109;50.992;6.918;2022-11-23T17:49:26;99514.41;;;8.70;100.00
27705;BME280;15109;50.992;6.918;2022-11-23T17:52:48;99508.78;;;8.71;100.00
27705;BME280;15109;50.992;6.918;2022-11-23T17:56:16;99511.50;;;8.78;100.00
27705;BME280;15109;50.992;6.918;2022-11-23T17:59:37;99503.38;;;8.84;100.00
27705;BME280;15109;50.992;6.918;2022-11-23T18:02:58;99499.16;;;8.82;100.00
27705;BME280;15109;50.992;6.918;2022-11-23T18:06:21;99503.13;;;8.79;100.00
27705;BME280;15109;50.992;6.918;2022-11-23T18:09:43;99510.66;;;8.77;100.00
27705;BME280;15109;50.992;6.918;2022-11-23T18:13:04;99513.19;;;8.79;100.00
27705;BME280;15109;50.992;6.918;2022-11-23T18:16:25;99523.88;;;8.80;100.00
27705;BME280;15109;50.992;6.918;2022-11-23T18:19:47;99526.59;;;8.80;100.00
27705;BME280;15109;50.992;6.918;2022-11-23T18:23:08;99534.34;;;8.77;100.00
27705;BME280;15109;50.992;6.918;2022-11-23T18:26:29;99540.03;;;8.82;100.00
27705;BME280;15109;50.992;6.918;2022-11-23T18:29:51;99541.69;;;8.76;100.00
27705;BME280;15109;50.992;6.918;2022-11-23T18:33:12;99538.56;;;8.79;100.00
27705;BME280;15109;50.992;6.918;2022-11-23T18:36:33;99545.47;;;8.82;100.00
27705;BME280;15109;50.992;6.918;2022-11-23T18:39:54;99554.09;;;8.79;100.00
27705;BME280;15109;50.992;6.918;2022-11-23T18:43:16;99557.22;;;8.82;100.00
27705;BME280;15109;50.992;6.918;2022-11-23T18:46:37;99557.88;;;8.84;100.00
27705;BME280;15109;50.992;6.918;2022-11-23T18:49:59;99571.06;;;8.81;100.00
27705;BME280;15109;50.992;6.918;2022-11-23T18:53:20;99576.13;;;8.84;100.00
27705;BME280;15109;50.992;6.918;2022-11-23T18:56:41;99567.94;;;8.84;100.00
27705;BME280;15109;50.992;6.918;2022-11-23T19:00:04;99580.50;;;8.85;100.00
27705;BME280;15109;50.992;6.918;2022-11-23T19:03:25;99583.69;;;8.88;100.00
27705;BME280;15109;50.992;6.918;2022-11-23T19:06:49;99585.34;;;8.89;100.00
27705;BME280;15109;50.992;6.918;2022-11-23T19:10:10;99600.84;;;8.82;100.00
27705;BME280;15109;50.992;6.918;2022-11-23T19:13:31;99609.81;;;8.76;100.00
27705;BME280;15109;50.992;6.918;2022-11-23T19:16:52;99609.81;;;8.76;100.00
27705;BME280;15109;50.992;6.918;2022-11-23T19:20:14;99611.06;;;8.74;100.00
27705;BME280;15109;50.992;6.918;2022-11-23T19:23:35;99615.50;;;8.75;100.00
27705;BME280;15109;50.992;6.918;2022-11-23T19:26:56;99619.41;;;8.65;100.00
27705;BME280;15109;50.992;6.918;2022-11-23T19:30:17;99618.13;;;8.61;100.00
27705;BME280;15109;50.992;6.918;2022-11-23T19:33:38;99619.59;;;8.57;100.00
27705;BME280;15109;50.992;6.918;2022-11-23T19:37:00;99630.56;;;8.36;100.00
27705;BME280;15109;50.992;6.918;2022-11-23T19:40:21;99626.88;;;8.23;100.00
27705;BME280;15109;50.992;6.918;2022-11-23T19:43:42;99633.31;;;8.15;100.00
27705;BME280;15109;50.992;6.918;2022-11-23T19:47:03;99649.31;;;8.03;100.00
27705;BME280;15109;50.992;6.918;2022-11-23T19:50:24;99646.13;;;7.93;100.00